Het weer levert geen direct gevaar op.    Er zijn geen waarschuwingen afgegeven.


Onweer radar Meer informatie blitzortung!


Regen radar Meer informatie rain snow radar


Bezoek onze andere website:

Template documentation
and downloads

And another site



Select another period ( hide this area )

Eenheden Periode Custom range Directly to
Metrisch Engels Beide
Dagelijkse Wekelijkse Maandelijkse Jaarlijkse
use both date-selectors for a custom range
previous Dag
With this date

WeatherUnderground graphs for this period ( click here )


Dagelijkse Samenvatting Zaterdag 19 oktober 2019
Tijd Temp. ( °C ) Dew pt. ( °C ) Wind ( km/h ) van Windvlaag ( km/h ) Luchtdruk ( hPa ) Humid.( % ) Rainrate ( cm )
Hoog14,8 11,9 18,5 ZZW ( 608/1618 ) 35,4 1003,6 94 0,80
Gemiddeld11,9 9,5 6,1 ZZW #97/264 13,8 1001,9 86 1,00
Laag10,1 7,9 1,6   2,6 1000,8 74 -
Dagelijkse Tabular details for Zaterdag 19 oktober 2019
Tijd Temp. ( °C ) Dew pt. ( °C ) Wind ( km/h ) van Windvlaag ( km/h ) Luchtdruk ( hPa ) Humid.( % ) Rainrate ( cm )
00:00 11,1 7,9 4,8 Zuiden 19,3 1003,0 81 -
00:05 11,1 8,2 4,8 ZZW 11,3 1002,9 82 -
00:10 11,1 8,1 4,8 ZZW 12,9 1003,0 82 -
00:15 11,0 8,1 11,3 ZZW 19,3 1002,9 82 -
00:20 11,0 8,2 9,3 ZZW 6,4 1002,9 83 -
00:25 10,9 8,2 13,0 WZW 6,4 1002,9 83 -
00:30 10,9 8,2 4,8 Zuiden 12,9 1002,9 83 -
00:35 10,9 8,1 3,2 ZZO 19,3 1002,8 83 -
00:40 10,9 8,3 4,8 Zuiden 12,9 1002,9 84 -
00:45 10,9 8,3 4,8 ZZW 16,1 1003,0 84 -
00:50 10,9 8,3 4,8 ZZW 19,3 1002,9 84 -
00:55 11,0 8,4 8,0 ZZW 14,5 1002,8 84 -
01:00 10,9 8,3 9,3 ZZO 4,0 1002,8 84 -
01:05 10,9 8,3 3,2 Zuiden 9,7 1002,8 84 -
01:10 10,9 8,3 3,2 Zuiden 12,9 1002,7 84 -
01:15 10,9 8,3 3,2 Zuiden 12,9 1002,7 84 -
01:20 10,8 8,2 11,1 ZZO 5,1 1002,6 84 -
01:25 10,8 8,2 7,4 ZZO 3,9 1002,6 84 -
01:30 10,7 8,1 3,2 ZZO 12,9 1002,6 84 -
01:35 10,7 8,2 3,2 ZZO 11,3 1002,6 85 -
01:40 10,6 8,1 3,2 Zuiden 9,7 1002,5 85 -
01:45 10,6 8,1 4,8 Zuiden 19,3 1002,5 85 -
01:50 10,5 8,1 3,2 Zuiden 14,5 1002,6 85 -
01:55 10,5 8,1 4,8 Zuiden 12,9 1002,7 85 -
02:00 10,4 8,2 3,2 Zuiden 12,9 1002,7 86 -
02:05 10,4 8,2 3,2 ZZO 14,5 1002,6 86 -
02:10 10,3 8,1 11,1 ZZW 4,2 1002,6 86 -
02:15 10,3 8,1 18,5 Zuiden 7,7 1002,5 86 -
02:20 10,3 8,1 4,8 Zuiden 11,3 1002,4 86 -
02:25 10,3 8,1 3,2 Zuiden 9,7 1002,4 86 -
02:30 10,3 8,1 3,2 Zuiden 9,7 1002,4 86 -
02:35 10,3 8,1 3,2 Zuiden 9,7 1002,3 86 -
02:40 10,3 8,1 4,8 Zuiden 11,3 1002,3 86 -
02:45 10,3 8,2 4,8 Zuiden 12,9 1002,3 87 -
02:50 10,2 8,2 4,8 Zuiden 14,5 1002,2 87 -
02:55 10,3 8,2 4,8 Zuiden 12,9 1002,2 87 -
03:00 10,2 8,2 13,0 Zuiden 8,2 1002,2 87 -
03:05 10,3 8,2 4,8 Zuiden 12,9 1002,1 87 -
03:10 10,3 8,2 4,8 ZZO 14,5 1002,1 87 -
03:15 10,3 8,2 3,2 Zuiden 11,3 1002,1 87 -
03:20 10,3 8,2 4,8 Zuiden 11,3 1002,1 87 -
03:25 10,3 8,2 9,3 Zuiden 6,1 1002,0 87 -
03:30 10,3 8,2 3,2 Zuiden 12,9 1002,0 87 -
03:35 10,2 8,2 4,8 Zuiden 11,3 1002,0 87 -
03:40 10,2 8,2 4,8 ZZO 14,5 1001,9 87 -
03:45 10,2 8,1 3,2 ZZO 11,3 1001,9 87 -
03:50 10,2 8,1 3,2 Zuiden 9,7 1001,8 87 -
03:55 10,1 8,2 3,2 Zuiden 12,9 1001,9 88 -
04:00 10,1 8,2 3,2 Zuiden 14,5 1001,9 88 -
04:05 10,1 8,2 4,8 Zuiden 14,5 1002,0 88 -
04:10 10,1 8,2 16,7 OZO 5,3 1002,0 88 -
04:15 10,1 8,2 3,2 ZZO 16,1 1002,0 88 -
04:20 10,1 8,2 14,8 ZZO 5,6 1001,8 88 -
04:25 10,1 8,2 4,8 Zuiden 12,9 1001,9 88 -
04:30 10,1 8,2 11,1 ZZW 5,0 1001,8 88 -
04:35 10,2 8,3 3,2 Zuiden 14,5 1001,9 88 -
04:40 10,2 8,3 8,0 Zuiden 11,3 1001,8 88 -
04:45 10,2 8,4 4,8 Zuiden 9,7 1001,8 89 -
04:50 10,2 8,4 3,2 Zuiden 14,5 1001,7 89 -
04:55 10,2 8,4 1,6 ZZO 12,9 1001,7 89 -
05:00 10,2 8,4 3,2 ZZO 11,3 1001,7 89 -
05:05 10,2 8,4 4,8 ZZO 19,3 1001,6 89 -
05:10 10,2 8,4 4,8 Zuiden 16,1 1001,7 89 -
05:15 10,2 8,4 4,8 ZZO 14,5 1001,7 89 -
05:20 10,2 8,4 4,8 ZZO 19,3 1001,7 89 -
05:25 10,2 8,5 4,8 ZZO 11,3 1001,7 89 -
05:30 10,2 8,5 3,2 Zuiden 11,3 1001,7 89 -
05:35 10,2 8,5 4,8 ZZO 12,9 1001,6 89 -
05:40 10,3 8,6 3,2 ZZO 11,3 1001,6 89 -
05:45 10,3 8,7 3,2 ZZO 11,3 1001,6 90 -
05:50 10,3 8,7 3,2 Zuiden 16,1 1001,5 90 -
05:55 10,3 8,8 4,8 ZZO 16,1 1001,5 90 -
06:00 10,4 8,8 4,8 ZZO 12,9 1001,4 90 -
06:05 10,4 8,8 4,8 Zuiden 14,5 1001,5 90 -
06:10 10,4 8,9 3,2 Zuiden 14,5 1001,6 90 -
06:15 10,5 8,9 3,2 Zuiden 11,3 1001,5 90 -
06:20 10,5 8,9 3,2 Zuiden 12,9 1001,5 90 -
06:25 10,6 9,0 3,2 Zuiden 11,3 1001,5 90 -
06:30 10,6 9,1 3,2 Zuiden 12,9 1001,5 90 -
06:35 10,7 9,1 11,1 ZZO 5,5 1001,5 90 -
06:40 10,7 9,1 4,8 Zuiden 14,5 1001,6 90 -
06:45 10,7 9,2 1,6 Zuiden 8,0 1001,6 90 -
06:50 10,7 9,2 4,8 Zuiden 11,3 1001,5 90 -
06:55 10,8 9,2 3,2 Zuiden 14,5 1001,4 90 -
07:00 10,8 9,2 1,6 ZZO 11,3 1001,4 90 -
07:05 10,8 9,2 3,2 ZZO 11,3 1001,3 90 -
07:10 10,7 9,2 1,6 Zuiden 12,9 1001,3 90 -
07:15 10,7 9,2 4,8 Zuiden 14,5 1001,3 90 -
07:20 10,7 9,2 4,8 ZZO 12,9 1001,3 90 -
07:25 10,7 9,2 3,2 ZZO 12,9 1001,2 90 -
07:30 10,7 9,2 3,2 Zuiden 11,3 1001,1 90 -
07:35 10,7 9,2 3,2 ZZW 8,0 1001,1 90 -
07:40 10,7 9,2 3,2 Zuiden 11,3 1000,9 90 -
07:45 10,7 9,2 1,6 Zuiden 12,9 1000,9 90 -
07:50 10,7 9,1 4,8 ZZO 14,5 1000,9 90 -
07:55 10,7 9,3 1,6 ZZO 11,3 1000,9 91 -
08:00 10,7 9,3 4,8 ZZO 14,5 1000,9 91 -
08:05 10,7 9,3 1,6 ZZO 11,3 1000,9 91 -
08:10 10,7 9,3 4,8 ZZO 14,5 1001,0 91 -
08:15 10,7 9,3 4,8 Zuiden 14,5 1001,0 91 -
08:20 10,7 9,3 3,2 ZZO 12,9 1000,8 91 -
08:25 10,7 9,3 1,6 ZZO 9,7 1000,8 91 -
08:30 10,7 9,3 3,2 ZZO 9,7 1000,8 91 -
08:35 10,8 9,5 3,2 Zuiden 12,9 1000,9 92 -
08:40 10,8 9,6 7,4 Zuiden 5,3 1000,8 92 -
08:45 10,8 9,6 8,0 ZZO 14,5 1000,8 92 -
08:50 10,9 9,7 5,6 ZO 3,4 1000,9 92 -
08:55 11,0 9,8 1,6 Zuiden 16,1 1001,0 92 -
09:00 11,1 9,8 9,7 Zuiden 16,1 1001,0 92 -
09:05 11,2 9,9 8,0 Zuiden 19,3 1001,0 92 -
09:10 11,3 10,1 4,8 ZZW 14,5 1001,1 92 -
09:15 11,4 10,1 8,0 Zuiden 19,3 1001,1 92 -
09:20 11,4 10,2 3,2 Zuiden 19,3 1001,2 92 -
09:25 11,6 10,3 4,8 ZZW 19,3 1001,3 92 -
09:30 11,6 10,3 3,2 ZZW 14,5 1001,2 92 0,20
09:35 11,7 10,4 9,7 ZZW 19,3 1001,5 92 0,80
09:40 11,5 10,3 11,3 ZW 16,1 1001,4 92 0,80
09:45 11,2 10,0 9,7 ZW 16,1 1001,4 92 0,40
09:50 10,9 9,5 9,7 ZW 20,9 1001,4 91 0,20
09:55 10,7 9,4 3,2 ZW 16,1 1001,4 92 -
10:00 10,5 9,1 4,8 ZZW 11,3 1001,5 91 -
10:05 10,4 9,2 4,8 ZZW 8,0 1001,4 92 -
10:10 10,3 9,1 8,0 ZW 12,9 1001,5 92 -
10:15 10,3 9,1 8,0 ZZW 20,9 1001,5 92 -
10:20 10,3 9,1 3,2 ZZW 12,9 1001,5 92 -
10:25 10,3 9,1 8,0 ZZW 16,1 1001,8 92 -
10:30 10,4 9,2 8,0 ZW 11,3 1001,6 92 -
10:35 10,5 9,3 3,2 ZW 12,9 1001,5 92 -
10:40 10,6 9,5 3,2 ZZW 11,3 1001,5 93 -
10:45 10,7 9,6 1,6 ZZW 8,0 1001,4 93 -
10:50 10,8 9,7 3,2 Zuiden 14,5 1001,4 93 -
10:55 10,9 9,9 4,8 ZZW 14,5 1001,5 93 -
11:00 11,0 9,9 3,2 ZZW 11,3 1001,6 93 -
11:05 11,1 9,9 3,2 ZZW 9,7 1001,5 93 -
11:10 11,1 9,9 8,0 ZZW 11,3 1001,6 93 -
11:15 11,1 9,9 8,0 ZZW 12,9 1001,6 93 -
11:20 11,1 10,0 4,8 ZZW 8,0 1001,5 93 -
11:25 11,2 10,1 4,8 Zuiden 9,7 1001,3 93 -
11:30 11,3 10,4 11,1 Zuiden 6,0 1001,2 94 -
11:35 11,4 10,5 4,8 Zuiden 14,5 1001,3 94 -
11:40 11,5 10,4 4,8 Zuiden 11,3 1001,3 93 -
11:45 11,6 10,4 1,6 Zuiden 9,7 1001,3 93 -
11:50 11,6 10,5 9,3 ZZW 4,8 1001,3 93 -
11:55 11,8 10,7 4,8 Zuiden 11,3 1001,3 93 -
12:00 11,9 10,8 3,2 Zuiden 9,7 1001,2 93 -
12:05 12,1 11,0 4,8 Zuiden 11,3 1001,1 93 -
12:10 12,2 10,9 4,8 Zuiden 14,5 1001,2 92 -
12:15 12,3 11,1 13,0 Zuiden 5,0 1001,4 92 -
12:20 12,6 11,3 11,1 WZW 5,0 1001,4 92 -
12:25 12,7 11,2 8,0 ZZW 14,5 1001,4 91 -
12:30 12,8 11,3 5,6 ZZO 2,6 1001,5 91 -
12:35 12,9 11,3 4,8 ZZO 14,5 1001,5 90 -
12:40 13,0 11,4 3,2 Zuiden 11,3 1001,4 90 -
12:45 13,1 11,5 3,2 Zuiden 14,5 1001,4 90 -
12:50 13,3 11,7 13,0 ZZW 7,9 1001,3 90 -
12:55 13,4 11,6 8,0 ZZW 14,5 1001,2 89 -
13:00 13,5 11,7 8,0 ZZW 14,5 1001,3 89 -
13:05 13,7 11,9 4,8 ZZW 11,3 1001,1 89 -
13:10 13,9 11,8 9,7 ZZW 22,5 1001,2 87 -
13:15 14,0 11,7 4,8 ZZW 19,3 1001,2 86 -
13:20 14,2 11,6 9,7 ZZW 19,3 1001,3 84 -
13:25 14,3 11,5 11,3 ZZW 19,3 1001,2 83 -
13:30 14,4 11,3 8,0 ZZW 19,3 1001,3 82 -
13:35 14,4 11,0 11,3 ZZW 19,3 1001,3 80 -
13:40 14,5 11,1 9,7 ZZW 20,9 1001,3 80 -
13:45 14,4 11,1 9,7 ZZW 19,3 1001,3 80 -
13:50 14,4 11,1 8,0 ZZW 27,4 1001,2 80 -
13:55 14,4 11,0 9,7 ZZW 16,1 1001,2 80 -
14:00 14,3 10,9 8,0 ZZW 16,1 1001,1 80 -
14:05 14,3 11,1 12,9 ZZW 19,3 1001,3 81 -
14:10 14,3 10,9 9,7 ZW 20,9 1001,2 80 -
14:15 14,3 10,9 9,7 ZW 19,3 1001,3 80 -
14:20 14,3 10,9 8,0 ZW 19,3 1001,2 80 -
14:25 14,4 10,9 8,0 ZZW 16,1 1001,3 80 -
14:30 14,4 10,8 14,8 ZW 7,7 1001,2 79 -
14:35 14,5 10,7 8,0 ZW 16,1 1001,1 78 -
14:40 14,5 10,5 8,0 ZW 12,9 1001,2 77 -
14:45 14,6 10,6 13,0 ZW 7,4 1001,3 77 -
14:50 14,6 10,8 11,3 ZW 22,5 1001,2 78 -
14:55 14,5 10,3 16,1 ZW 24,1 1001,1 76 -
15:00 14,4 10,2 11,3 ZW 24,1 1001,3 76 -
15:05 14,4 10,2 8,0 ZZW 19,3 1001,4 76 -
15:10 14,4 10,4 12,9 ZZW 24,1 1001,4 77 -
15:15 14,4 10,4 13,0 ZW 7,7 1001,4 77 -
15:20 14,4 10,1 9,7 ZW 19,3 1001,4 75 -
15:25 14,6 10,4 11,3 ZW 19,3 1001,5 76 -
15:30 14,6 10,4 9,7 ZW 14,5 1001,5 76 -
15:35 14,6 10,2 11,3 ZW 20,9 1001,5 75 -
15:40 14,6 10,0 12,9 ZW 35,4 1001,5 74 -
15:45 14,6 10,2 8,0 ZW 20,9 1001,6 75 -
15:50 14,6 10,4 4,8 ZW 19,3 1001,6 76 -
15:55 14,5 10,3 12,9 ZZW 24,1 1001,6 76 -
16:00 14,4 10,2 4,8 Zuiden 24,1 1001,5 76 -
16:05 14,4 10,4 9,7 Zuiden 19,3 1001,5 77 -
16:10 14,4 10,4 8,0 ZW 24,1 1001,5 77 -
16:15 14,5 10,5 11,3 ZW 24,1 1001,7 77 -
16:20 14,5 10,5 9,7 ZW 20,9 1001,7 77 -
16:25 14,4 10,4 9,7 ZW 22,5 1001,7 77 -
16:30 14,4 10,6 8,0 ZW 19,3 1001,7 78 -
16:35 14,4 10,6 9,7 ZW 22,5 1001,7 78 -
16:40 14,4 10,4 3,2 ZZW 24,1 1001,7 77 -
16:45 14,6 10,8 11,3 ZZW 19,3 1001,7 78 -
16:50 14,8 10,8 11,3 ZZW 5,8 1001,7 77 -
16:55 14,8 10,8 9,7 ZZW 22,5 1001,8 77 -
17:00 14,7 10,5 11,3 ZW 20,9 1001,8 76 -
17:05 14,5 10,3 8,0 ZW 24,1 1001,8 76 -
17:10 14,6 10,4 9,7 ZW 20,9 1002,0 76 -
17:15 14,7 10,3 9,7 ZW 20,9 1001,9 75 -
17:20 14,7 10,3 4,8 ZW 20,9 1001,8 75 -
17:25 14,6 10,2 9,7 ZW 19,3 1001,9 75 -
17:30 14,5 10,3 9,7 ZZW 24,1 1002,0 76 -
17:35 14,3 10,1 9,7 ZW 19,3 1002,1 76 -
17:40 14,1 10,1 8,0 ZZW 19,3 1002,0 77 -
17:45 14,0 10,0 12,9 ZW 19,3 1002,0 77 -
17:50 13,9 9,9 8,0 ZW 16,1 1002,1 77 -
17:55 13,8 10,0 4,8 ZZW 19,3 1002,2 78 -
18:00 13,7 9,9 3,2 ZW 19,3 1002,2 78 -
18:05 13,6 9,8 12,9 ZZW 16,1 1002,2 78 -
18:10 13,6 10,0 8,0 ZZW 12,9 1002,3 79 -
18:15 13,5 9,9 4,8 ZZW 12,9 1002,4 79 -
18:20 13,4 9,9 8,0 ZZW 19,3 1002,4 79 -
18:25 13,4 10,0 3,2 Zuiden 9,7 1002,3 80 -
18:30 13,3 9,9 4,8 ZZW 9,7 1002,3 80 -
18:35 13,3 9,9 3,2 ZZW 12,9 1002,4 80 -
18:40 13,2 9,8 4,8 ZZW 14,5 1002,5 80 -
18:45 13,1 9,7 8,0 ZZW 16,1 1002,4 80 -
18:50 13,1 9,9 8,0 ZZW 14,5 1002,5 81 -
18:55 13,0 9,8 4,8 ZZW 19,3 1002,4 81 -
19:00 12,9 9,8 3,2 ZZW 19,3 1002,5 81 -
19:05 12,9 9,7 3,2 ZZW 12,9 1002,5 81 -
19:10 12,8 9,6 8,0 ZZW 14,5 1002,5 81 -
19:15 12,7 9,7 4,8 ZZW 11,3 1002,5 82 -
19:20 12,7 9,7 1,6 ZZW 8,0 1002,6 82 -
19:25 12,6 9,6 4,8 ZZW 9,7 1002,6 82 -
19:30 12,5 9,5 4,8 ZZW 12,9 1002,7 82 -
19:35 12,4 9,4 3,2 ZZW 14,5 1002,8 82 -
19:40 12,3 9,3 3,2 ZW 14,5 1002,7 82 -
19:45 12,3 9,5 9,3 Zuiden 6,1 1002,7 83 -
19:50 12,3 9,5 3,2 ZZW 11,3 1002,8 83 -
19:55 12,3 9,5 4,8 ZZW 12,9 1002,8 83 -
20:00 12,2 9,6 3,2 ZZW 9,7 1002,8 84 -
20:05 12,2 9,6 5,6 ZW 3,7 1002,8 84 -
20:10 12,2 9,6 3,2 ZZW 8,0 1002,8 84 -
20:15 12,2 9,6 3,2 ZZW 11,3 1002,8 84 -
20:20 12,2 9,7 3,2 ZZW 11,3 1002,9 85 -
20:25 12,1 9,7 4,8 ZZW 8,0 1002,9 85 -
20:30 12,1 9,6 4,8 ZZW 11,3 1002,9 85 -
20:35 12,1 9,6 4,8 ZZW 9,7 1002,9 85 -
20:40 12,0 9,6 3,2 ZZW 8,0 1003,0 85 -
20:45 11,9 9,7 3,2 ZZW 11,3 1003,1 86 -
20:50 11,9 9,6 3,2 ZZW 9,7 1003,1 86 -
20:55 11,8 9,6 3,2 ZZW 9,7 1003,1 86 -
21:00 11,8 9,5 1,6 ZZW 9,7 1003,1 86 -
21:05 11,7 9,4 4,8 ZZW 9,7 1003,0 86 -
21:10 11,6 9,4 8,0 ZZW 11,3 1003,2 86 -
21:15 11,6 9,5 3,2 ZZW 6,4 1003,2 87 -
21:20 11,6 9,4 1,6 ZZW 6,4 1003,2 87 -
21:25 11,6 9,4 3,2 ZZW 8,0 1003,2 87 -
21:30 11,6 9,4 1,6 ZZW 11,3 1003,2 87 -
21:35 11,6 9,4 4,8 ZZW 11,3 1003,3 87 -
21:40 11,5 9,4 3,2 ZZW 12,9 1003,3 87 -
21:45 11,5 9,4 3,2 ZW 11,3 1003,4 87 -
21:50 11,5 9,4 3,2 ZW 14,5 1003,5 87 -
21:55 11,5 9,4 1,6 ZZW 9,7 1003,6 87 -
Dagelijkse Samenvatting Zaterdag 19 oktober 2019
Tijd Temp. ( °C ) Dew pt. ( °C ) Wind ( km/h ) van Windvlaag ( km/h ) Luchtdruk ( hPa ) Humid.( % ) Rainrate ( cm )
Hoog14,8 11,9 18,5 ZZW ( 608/1618 ) 35,4 1003,6 94 0,80
Gemiddeld11,9 9,5 6,1 ZZW #97/264 13,8 1001,9 86 1,00
Laag10,1 7,9 1,6   2,6 1000,8 74 -
Dagelijkse Tabular details for Zaterdag 19 oktober 2019
Tijd Temp. ( °C ) Dew pt. ( °C ) Wind ( km/h ) van Windvlaag ( km/h ) Luchtdruk ( hPa ) Humid.( % ) Rainrate ( cm )
00:00 11,1 7,9 4,8 Zuiden 19,3 1003,0 81 -
00:05 11,1 8,2 4,8 ZZW 11,3 1002,9 82 -
00:10 11,1 8,1 4,8 ZZW 12,9 1003,0 82 -
00:15 11,0 8,1 11,3 ZZW 19,3 1002,9 82 -
00:20 11,0 8,2 9,3 ZZW 6,4 1002,9 83 -
00:25 10,9 8,2 13,0 WZW 6,4 1002,9 83 -
00:30 10,9 8,2 4,8 Zuiden 12,9 1002,9 83 -
00:35 10,9 8,1 3,2 ZZO 19,3 1002,8 83 -
00:40 10,9 8,3 4,8 Zuiden 12,9 1002,9 84 -
00:45 10,9 8,3 4,8 ZZW 16,1 1003,0 84 -
00:50 10,9 8,3 4,8 ZZW 19,3 1002,9 84 -
00:55 11,0 8,4 8,0 ZZW 14,5 1002,8 84 -
01:00 10,9 8,3 9,3 ZZO 4,0 1002,8 84 -
01:05 10,9 8,3 3,2 Zuiden 9,7 1002,8 84 -
01:10 10,9 8,3 3,2 Zuiden 12,9 1002,7 84 -
01:15 10,9 8,3 3,2 Zuiden 12,9 1002,7 84 -
01:20 10,8 8,2 11,1 ZZO 5,1 1002,6 84 -
01:25 10,8 8,2 7,4 ZZO 3,9 1002,6 84 -
01:30 10,7 8,1 3,2 ZZO 12,9 1002,6 84 -
01:35 10,7 8,2 3,2 ZZO 11,3 1002,6 85 -
01:40 10,6 8,1 3,2 Zuiden 9,7 1002,5 85 -
01:45 10,6 8,1 4,8 Zuiden 19,3 1002,5 85 -
01:50 10,5 8,1 3,2 Zuiden 14,5 1002,6 85 -
01:55 10,5 8,1 4,8 Zuiden 12,9 1002,7 85 -
02:00 10,4 8,2 3,2 Zuiden 12,9 1002,7 86 -
02:05 10,4 8,2 3,2 ZZO 14,5 1002,6 86 -
02:10 10,3 8,1 11,1 ZZW 4,2 1002,6 86 -
02:15 10,3 8,1 18,5 Zuiden 7,7 1002,5 86 -
02:20 10,3 8,1 4,8 Zuiden 11,3 1002,4 86 -
02:25 10,3 8,1 3,2 Zuiden 9,7 1002,4 86 -
02:30 10,3 8,1 3,2 Zuiden 9,7 1002,4 86 -
02:35 10,3 8,1 3,2 Zuiden 9,7 1002,3 86 -
02:40 10,3 8,1 4,8 Zuiden 11,3 1002,3 86 -
02:45 10,3 8,2 4,8 Zuiden 12,9 1002,3 87 -
02:50 10,2 8,2 4,8 Zuiden 14,5 1002,2 87 -
02:55 10,3 8,2 4,8 Zuiden 12,9 1002,2 87 -
03:00 10,2 8,2 13,0 Zuiden 8,2 1002,2 87 -
03:05 10,3 8,2 4,8 Zuiden 12,9 1002,1 87 -
03:10 10,3 8,2 4,8 ZZO 14,5 1002,1 87 -
03:15 10,3 8,2 3,2 Zuiden 11,3 1002,1 87 -
03:20 10,3 8,2 4,8 Zuiden 11,3 1002,1 87 -
03:25 10,3 8,2 9,3 Zuiden 6,1 1002,0 87 -
03:30 10,3 8,2 3,2 Zuiden 12,9 1002,0 87 -
03:35 10,2 8,2 4,8 Zuiden 11,3 1002,0 87 -
03:40 10,2 8,2 4,8 ZZO 14,5 1001,9 87 -
03:45 10,2 8,1 3,2 ZZO 11,3 1001,9 87 -
03:50 10,2 8,1 3,2 Zuiden 9,7 1001,8 87 -
03:55 10,1 8,2 3,2 Zuiden 12,9 1001,9 88 -
04:00 10,1 8,2 3,2 Zuiden 14,5 1001,9 88 -
04:05 10,1 8,2 4,8 Zuiden 14,5 1002,0 88 -
04:10 10,1 8,2 16,7 OZO 5,3 1002,0 88 -
04:15 10,1 8,2 3,2 ZZO 16,1 1002,0 88 -
04:20 10,1 8,2 14,8 ZZO 5,6 1001,8 88 -
04:25 10,1 8,2 4,8 Zuiden 12,9 1001,9 88 -
04:30 10,1 8,2 11,1 ZZW 5,0 1001,8 88 -
04:35 10,2 8,3 3,2 Zuiden 14,5 1001,9 88 -
04:40 10,2 8,3 8,0 Zuiden 11,3 1001,8 88 -
04:45 10,2 8,4 4,8 Zuiden 9,7 1001,8 89 -
04:50 10,2 8,4 3,2 Zuiden 14,5 1001,7 89 -
04:55 10,2 8,4 1,6 ZZO 12,9 1001,7 89 -
05:00 10,2 8,4 3,2 ZZO 11,3 1001,7 89 -
05:05 10,2 8,4 4,8 ZZO 19,3 1001,6 89 -
05:10 10,2 8,4 4,8 Zuiden 16,1 1001,7 89 -
05:15 10,2 8,4 4,8 ZZO 14,5 1001,7 89 -
05:20 10,2 8,4 4,8 ZZO 19,3 1001,7 89 -
05:25 10,2 8,5 4,8 ZZO 11,3 1001,7 89 -
05:30 10,2 8,5 3,2 Zuiden 11,3 1001,7 89 -
05:35 10,2 8,5 4,8 ZZO 12,9 1001,6 89 -
05:40 10,3 8,6 3,2 ZZO 11,3 1001,6 89 -
05:45 10,3 8,7 3,2 ZZO 11,3 1001,6 90 -
05:50 10,3 8,7 3,2 Zuiden 16,1 1001,5 90 -
05:55 10,3 8,8 4,8 ZZO 16,1 1001,5 90 -
06:00 10,4 8,8 4,8 ZZO 12,9 1001,4 90 -
06:05 10,4 8,8 4,8 Zuiden 14,5 1001,5 90 -
06:10 10,4 8,9 3,2 Zuiden 14,5 1001,6 90 -
06:15 10,5 8,9 3,2 Zuiden 11,3 1001,5 90 -
06:20 10,5 8,9 3,2 Zuiden 12,9 1001,5 90 -
06:25 10,6 9,0 3,2 Zuiden 11,3 1001,5 90 -
06:30 10,6 9,1 3,2 Zuiden 12,9 1001,5 90 -
06:35 10,7 9,1 11,1 ZZO 5,5 1001,5 90 -
06:40 10,7 9,1 4,8 Zuiden 14,5 1001,6 90 -
06:45 10,7 9,2 1,6 Zuiden 8,0 1001,6 90 -
06:50 10,7 9,2 4,8 Zuiden 11,3 1001,5 90 -
06:55 10,8 9,2 3,2 Zuiden 14,5 1001,4 90 -
07:00 10,8 9,2 1,6 ZZO 11,3 1001,4 90 -
07:05 10,8 9,2 3,2 ZZO 11,3 1001,3 90 -
07:10 10,7 9,2 1,6 Zuiden 12,9 1001,3 90 -
07:15 10,7 9,2 4,8 Zuiden 14,5 1001,3 90 -
07:20 10,7 9,2 4,8 ZZO 12,9 1001,3 90 -
07:25 10,7 9,2 3,2 ZZO 12,9 1001,2 90 -
07:30 10,7 9,2 3,2 Zuiden 11,3 1001,1 90 -
07:35 10,7 9,2 3,2 ZZW 8,0 1001,1 90 -
07:40 10,7 9,2 3,2 Zuiden 11,3 1000,9 90 -
07:45 10,7 9,2 1,6 Zuiden 12,9 1000,9 90 -
07:50 10,7 9,1 4,8 ZZO 14,5 1000,9 90 -
07:55 10,7 9,3 1,6 ZZO 11,3 1000,9 91 -
08:00 10,7 9,3 4,8 ZZO 14,5 1000,9 91 -
08:05 10,7 9,3 1,6 ZZO 11,3 1000,9 91 -
08:10 10,7 9,3 4,8 ZZO 14,5 1001,0 91 -
08:15 10,7 9,3 4,8 Zuiden 14,5 1001,0 91 -
08:20 10,7 9,3 3,2 ZZO 12,9 1000,8 91 -
08:25 10,7 9,3 1,6 ZZO 9,7 1000,8 91 -
08:30 10,7 9,3 3,2 ZZO 9,7 1000,8 91 -
08:35 10,8 9,5 3,2 Zuiden 12,9 1000,9 92 -
08:40 10,8 9,6 7,4 Zuiden 5,3 1000,8 92 -
08:45 10,8 9,6 8,0 ZZO 14,5 1000,8 92 -
08:50 10,9 9,7 5,6 ZO 3,4 1000,9 92 -
08:55 11,0 9,8 1,6 Zuiden 16,1 1001,0 92 -
09:00 11,1 9,8 9,7 Zuiden 16,1 1001,0 92 -
09:05 11,2 9,9 8,0 Zuiden 19,3 1001,0 92 -
09:10 11,3 10,1 4,8 ZZW 14,5 1001,1 92 -
09:15 11,4 10,1 8,0 Zuiden 19,3 1001,1 92 -
09:20 11,4 10,2 3,2 Zuiden 19,3 1001,2 92 -
09:25 11,6 10,3 4,8 ZZW 19,3 1001,3 92 -
09:30 11,6 10,3 3,2 ZZW 14,5 1001,2 92 0,20
09:35 11,7 10,4 9,7 ZZW 19,3 1001,5 92 0,80
09:40 11,5 10,3 11,3 ZW 16,1 1001,4 92 0,80
09:45 11,2 10,0 9,7 ZW 16,1 1001,4 92 0,40
09:50 10,9 9,5 9,7 ZW 20,9 1001,4 91 0,20
09:55 10,7 9,4 3,2 ZW 16,1 1001,4 92 -
10:00 10,5 9,1 4,8 ZZW 11,3 1001,5 91 -
10:05 10,4 9,2 4,8 ZZW 8,0 1001,4 92 -
10:10 10,3 9,1 8,0 ZW 12,9 1001,5 92 -
10:15 10,3 9,1 8,0 ZZW 20,9 1001,5 92 -
10:20 10,3 9,1 3,2 ZZW 12,9 1001,5 92 -
10:25 10,3 9,1 8,0 ZZW 16,1 1001,8 92 -
10:30 10,4 9,2 8,0 ZW 11,3 1001,6 92 -
10:35 10,5 9,3 3,2 ZW 12,9 1001,5 92 -
10:40 10,6 9,5 3,2 ZZW 11,3 1001,5 93 -
10:45 10,7 9,6 1,6 ZZW 8,0 1001,4 93 -
10:50 10,8 9,7 3,2 Zuiden 14,5 1001,4 93 -
10:55 10,9 9,9 4,8 ZZW 14,5 1001,5 93 -
11:00 11,0 9,9 3,2 ZZW 11,3 1001,6 93 -
11:05 11,1 9,9 3,2 ZZW 9,7 1001,5 93 -
11:10 11,1 9,9 8,0 ZZW 11,3 1001,6 93 -
11:15 11,1 9,9 8,0 ZZW 12,9 1001,6 93 -
11:20 11,1 10,0 4,8 ZZW 8,0 1001,5 93 -
11:25 11,2 10,1 4,8 Zuiden 9,7 1001,3 93 -
11:30 11,3 10,4 11,1 Zuiden 6,0 1001,2 94 -
11:35 11,4 10,5 4,8 Zuiden 14,5 1001,3 94 -
11:40 11,5 10,4 4,8 Zuiden 11,3 1001,3 93 -
11:45 11,6 10,4 1,6 Zuiden 9,7 1001,3 93 -
11:50 11,6 10,5 9,3 ZZW 4,8 1001,3 93 -
11:55 11,8 10,7 4,8 Zuiden 11,3 1001,3 93 -
12:00 11,9 10,8 3,2 Zuiden 9,7 1001,2 93 -
12:05 12,1 11,0 4,8 Zuiden 11,3 1001,1 93 -
12:10 12,2 10,9 4,8 Zuiden 14,5 1001,2 92 -
12:15 12,3 11,1 13,0 Zuiden 5,0 1001,4 92 -
12:20 12,6 11,3 11,1 WZW 5,0 1001,4 92 -
12:25 12,7 11,2 8,0 ZZW 14,5 1001,4 91 -
12:30 12,8 11,3 5,6 ZZO 2,6 1001,5 91 -
12:35 12,9 11,3 4,8 ZZO 14,5 1001,5 90 -
12:40 13,0 11,4 3,2 Zuiden 11,3 1001,4 90 -
12:45 13,1 11,5 3,2 Zuiden 14,5 1001,4 90 -
12:50 13,3 11,7 13,0 ZZW 7,9 1001,3 90 -
12:55 13,4 11,6 8,0 ZZW 14,5 1001,2 89 -
13:00 13,5 11,7 8,0 ZZW 14,5 1001,3 89 -
13:05 13,7 11,9 4,8 ZZW 11,3 1001,1 89 -
13:10 13,9 11,8 9,7 ZZW 22,5 1001,2 87 -
13:15 14,0 11,7 4,8 ZZW 19,3 1001,2 86 -
13:20 14,2 11,6 9,7 ZZW 19,3 1001,3 84 -
13:25 14,3 11,5 11,3 ZZW 19,3 1001,2 83 -
13:30 14,4 11,3 8,0 ZZW 19,3 1001,3 82 -
13:35 14,4 11,0 11,3 ZZW 19,3 1001,3 80 -
13:40 14,5 11,1 9,7 ZZW 20,9 1001,3 80 -
13:45 14,4 11,1 9,7 ZZW 19,3 1001,3 80 -
13:50 14,4 11,1 8,0 ZZW 27,4 1001,2 80 -
13:55 14,4 11,0 9,7 ZZW 16,1 1001,2 80 -
14:00 14,3 10,9 8,0 ZZW 16,1 1001,1 80 -
14:05 14,3 11,1 12,9 ZZW 19,3 1001,3 81 -
14:10 14,3 10,9 9,7 ZW 20,9 1001,2 80 -
14:15 14,3 10,9 9,7 ZW 19,3 1001,3 80 -
14:20 14,3 10,9 8,0 ZW 19,3 1001,2 80 -
14:25 14,4 10,9 8,0 ZZW 16,1 1001,3 80 -
14:30 14,4 10,8 14,8 ZW 7,7 1001,2 79 -
14:35 14,5 10,7 8,0 ZW 16,1 1001,1 78 -
14:40 14,5 10,5 8,0 ZW 12,9 1001,2 77 -
14:45 14,6 10,6 13,0 ZW 7,4 1001,3 77 -
14:50 14,6 10,8 11,3 ZW 22,5 1001,2 78 -
14:55 14,5 10,3 16,1 ZW 24,1 1001,1 76 -
15:00 14,4 10,2 11,3 ZW 24,1 1001,3 76 -
15:05 14,4 10,2 8,0 ZZW 19,3 1001,4 76 -
15:10 14,4 10,4 12,9 ZZW 24,1 1001,4 77 -
15:15 14,4 10,4 13,0 ZW 7,7 1001,4 77 -
15:20 14,4 10,1 9,7 ZW 19,3 1001,4 75 -
15:25 14,6 10,4 11,3 ZW 19,3 1001,5 76 -
15:30 14,6 10,4 9,7 ZW 14,5 1001,5 76 -
15:35 14,6 10,2 11,3 ZW 20,9 1001,5 75 -
15:40 14,6 10,0 12,9 ZW 35,4 1001,5 74 -
15:45 14,6 10,2 8,0 ZW 20,9 1001,6 75 -
15:50 14,6 10,4 4,8 ZW 19,3 1001,6 76 -
15:55 14,5 10,3 12,9 ZZW 24,1 1001,6 76 -
16:00 14,4 10,2 4,8 Zuiden 24,1 1001,5 76 -
16:05 14,4 10,4 9,7 Zuiden 19,3 1001,5 77 -
16:10 14,4 10,4 8,0 ZW 24,1 1001,5 77 -
16:15 14,5 10,5 11,3 ZW 24,1 1001,7 77 -
16:20 14,5 10,5 9,7 ZW 20,9 1001,7 77 -
16:25 14,4 10,4 9,7 ZW 22,5 1001,7 77 -
16:30 14,4 10,6 8,0 ZW 19,3 1001,7 78 -
16:35 14,4 10,6 9,7 ZW 22,5 1001,7 78 -
16:40 14,4 10,4 3,2 ZZW 24,1 1001,7 77 -
16:45 14,6 10,8 11,3 ZZW 19,3 1001,7 78 -
16:50 14,8 10,8 11,3 ZZW 5,8 1001,7 77 -
16:55 14,8 10,8 9,7 ZZW 22,5 1001,8 77 -
17:00 14,7 10,5 11,3 ZW 20,9 1001,8 76 -
17:05 14,5 10,3 8,0 ZW 24,1 1001,8 76 -
17:10 14,6 10,4 9,7 ZW 20,9 1002,0 76 -
17:15 14,7 10,3 9,7 ZW 20,9 1001,9 75 -
17:20 14,7 10,3 4,8 ZW 20,9 1001,8 75 -
17:25 14,6 10,2 9,7 ZW 19,3 1001,9 75 -
17:30 14,5 10,3 9,7 ZZW 24,1 1002,0 76 -
17:35 14,3 10,1 9,7 ZW 19,3 1002,1 76 -
17:40 14,1 10,1 8,0 ZZW 19,3 1002,0 77 -
17:45 14,0 10,0 12,9 ZW 19,3 1002,0 77 -
17:50 13,9 9,9 8,0 ZW 16,1 1002,1 77 -
17:55 13,8 10,0 4,8 ZZW 19,3 1002,2 78 -
18:00 13,7 9,9 3,2 ZW 19,3 1002,2 78 -
18:05 13,6 9,8 12,9 ZZW 16,1 1002,2 78 -
18:10 13,6 10,0 8,0 ZZW 12,9 1002,3 79 -
18:15 13,5 9,9 4,8 ZZW 12,9 1002,4 79 -
18:20 13,4 9,9 8,0 ZZW 19,3 1002,4 79 -
18:25 13,4 10,0 3,2 Zuiden 9,7 1002,3 80 -
18:30 13,3 9,9 4,8 ZZW 9,7 1002,3 80 -
18:35 13,3 9,9 3,2 ZZW 12,9 1002,4 80 -
18:40 13,2 9,8 4,8 ZZW 14,5 1002,5 80 -
18:45 13,1 9,7 8,0 ZZW 16,1 1002,4 80 -
18:50 13,1 9,9 8,0 ZZW 14,5 1002,5 81 -
18:55 13,0 9,8 4,8 ZZW 19,3 1002,4 81 -
19:00 12,9 9,8 3,2 ZZW 19,3 1002,5 81 -
19:05 12,9 9,7 3,2 ZZW 12,9 1002,5 81 -
19:10 12,8 9,6 8,0 ZZW 14,5 1002,5 81 -
19:15 12,7 9,7 4,8 ZZW 11,3 1002,5 82 -
19:20 12,7 9,7 1,6 ZZW 8,0 1002,6 82 -
19:25 12,6 9,6 4,8 ZZW 9,7 1002,6 82 -
19:30 12,5 9,5 4,8 ZZW 12,9 1002,7 82 -
19:35 12,4 9,4 3,2 ZZW 14,5 1002,8 82 -
19:40 12,3 9,3 3,2 ZW 14,5 1002,7 82 -
19:45 12,3 9,5 9,3 Zuiden 6,1 1002,7 83 -
19:50 12,3 9,5 3,2 ZZW 11,3 1002,8 83 -
19:55 12,3 9,5 4,8 ZZW 12,9 1002,8 83 -
20:00 12,2 9,6 3,2 ZZW 9,7 1002,8 84 -
20:05 12,2 9,6 5,6 ZW 3,7 1002,8 84 -
20:10 12,2 9,6 3,2 ZZW 8,0 1002,8 84 -
20:15 12,2 9,6 3,2 ZZW 11,3 1002,8 84 -
20:20 12,2 9,7 3,2 ZZW 11,3 1002,9 85 -
20:25 12,1 9,7 4,8 ZZW 8,0 1002,9 85 -
20:30 12,1 9,6 4,8 ZZW 11,3 1002,9 85 -
20:35 12,1 9,6 4,8 ZZW 9,7 1002,9 85 -
20:40 12,0 9,6 3,2 ZZW 8,0 1003,0 85 -
20:45 11,9 9,7 3,2 ZZW 11,3 1003,1 86 -
20:50 11,9 9,6 3,2 ZZW 9,7 1003,1 86 -
20:55 11,8 9,6 3,2 ZZW 9,7 1003,1 86 -
21:00 11,8 9,5 1,6 ZZW 9,7 1003,1 86 -
21:05 11,7 9,4 4,8 ZZW 9,7 1003,0 86 -
21:10 11,6 9,4 8,0 ZZW 11,3 1003,2 86 -
21:15 11,6 9,5 3,2 ZZW 6,4 1003,2 87 -
21:20 11,6 9,4 1,6 ZZW 6,4 1003,2 87 -
21:25 11,6 9,4 3,2 ZZW 8,0 1003,2 87 -
21:30 11,6 9,4 1,6 ZZW 11,3 1003,2 87 -
21:35 11,6 9,4 4,8 ZZW 11,3 1003,3 87 -
21:40 11,5 9,4 3,2 ZZW 12,9 1003,3 87 -
21:45 11,5 9,4 3,2 ZW 11,3 1003,4 87 -
21:50 11,5 9,4 3,2 ZW 14,5 1003,5 87 -
21:55 11,5 9,4 1,6 ZZW 9,7 1003,6 87 -

Download your copy of this data-set  here

Our weather-data as stored at Weather Underground. Script ontwikkeld door Jim McMurry. Aangepast voor de template door Leuven-Template.eu

U vindt ons ook hier:

Het Weer Aktueel

European Weather Network

Weather Underground

Benelux Weer Netwerk

Citizen Weather Observer Program (CWOP)

Apparatuur in gebruik:

Weerstation
Davis VP2

Weerprogramma
Weather Display

Weercomputer
My Computer

Webleverancier
WeservIT

Davis VP2

Weather Display

My Computer

WeservIT